Αρχική σελίδα
METAR-TAF:

METAR-TAF

Αεροδρόμια :

Διεθνής Αερολιμένας Λάρνακας

Λάρνακα, Κύπρος

γεωγραφικό πλάτος: 34-53N, γεωγραφικό μήκος: 033-38E, υψόμετρο: 2 μ

Παρών καιρός

Η αναφορά έγινε 32 λεπτά πριν, στις 21:00 UTC
Άνεμος 6 kt από Β
Θερμοκρασία 25°C
Υγρασία 54%
Πίεση 1009 hPa
Ορατότητα 10 χλμ και άνω
Δεν υπάρχουν νέφη με βάση κάτω από τα 1500 μ. και δεν υπάρχουν νέφη σωρειτομελανίτες.

METAR: LCLK 232100Z 01006KT CAVOK 25/15 Q1009 NOSIG

Χρόνος: 00:32 (21:32 UTC)

Πρόγνωση Καιρού

Η αναφορά έγινε 4 ώρες και 2 λεπτά πριν, στις 17:30 UTC
Η πρόγνωση ισχύει από τις 23 στις 18 UTC έως τις 24 στις 18 UTC
Άνεμος 8 kt από
Ορατότητα 10 χλμ και άνω
Λίγα νέφη σε ύψος 2000 πόδια
Καθιστάμενος
από 24 στις 08 UTC έως τις 24 στις 11 UTC
Άνεμος 18 kt από ΝΔ

TAF: LCLK 231730Z 2318/2418 32008KT 9999 FEW020 BECMG 2408/2411 22018KT

Μετεωρολογικές αναφορές και προγνώσεις για περισσότερα από 4000 αεροδρόμια (δελτία METAR και TAF).

Οι διαθέσιμοι σταθμοί απεικονίζονται στο χάρτη με κίτρινες και κόκκινες κουκκίδες.

Μετακινήστε το ποντίκι πάνω από τις κουκκίδες για να δείτε το όνομα του σταθμού.

Στη συνέχεια, κάντε κλικ για να δείτε τις μετεωρολογικές αναφορές και τις προγνώσεις καιρού.

Για να αλλάξετε το χάρτη: κάντε κλικ στα πράσινα κουμπιά με τον μαύρο σταυρό για να ζουμάρετε, στο πράσινο κουμπί με την παύλα για να αφαιρέσετε το ζουμ ή στα πράσινα βέλη για να αντιπαραβάλλετε χάρτες.


METAR-TAF: